sensor_id;sensor_type;location;lat;lon;timestamp;temperature;humidity
38118;DHT22;23928;47.562;7.508;2023-08-21T00:00:05;24.30;99.90
38118;DHT22;23928;47.562;7.508;2023-08-21T00:02:30;24.30;99.90
38118;DHT22;23928;47.562;7.508;2023-08-21T00:04:56;24.40;99.90
38118;DHT22;23928;47.562;7.508;2023-08-21T00:07:22;24.40;99.90
38118;DHT22;23928;47.562;7.508;2023-08-21T00:09:48;24.20;99.90
38118;DHT22;23928;47.562;7.508;2023-08-21T00:12:13;24.10;99.90
38118;DHT22;23928;47.562;7.508;2023-08-21T00:14:39;24.20;99.90
38118;DHT22;23928;47.562;7.508;2023-08-21T00:17:05;23.90;99.90
38118;DHT22;23928;47.562;7.508;2023-08-21T00:19:31;23.80;99.90
38118;DHT22;23928;47.562;7.508;2023-08-21T00:21:57;23.60;99.90
38118;DHT22;23928;47.562;7.508;2023-08-21T00:24:23;23.30;99.90
38118;DHT22;23928;47.562;7.508;2023-08-21T00:26:48;23.30;99.90
38118;DHT22;23928;47.562;7.508;2023-08-21T00:29:14;23.50;99.90
38118;DHT22;23928;47.562;7.508;2023-08-21T00:31:39;23.30;99.90
38118;DHT22;23928;47.562;7.508;2023-08-21T00:34:05;23.00;99.90
38118;DHT22;23928;47.562;7.508;2023-08-21T00:36:31;22.90;99.90
38118;DHT22;23928;47.562;7.508;2023-08-21T00:38:56;23.00;99.90
38118;DHT22;23928;47.562;7.508;2023-08-21T00:41:22;23.00;99.90
38118;DHT22;23928;47.562;7.508;2023-08-21T00:43:47;23.00;99.90
38118;DHT22;23928;47.562;7.508;2023-08-21T00:46:13;23.00;99.90
38118;DHT22;23928;47.562;7.508;2023-08-21T00:48:39;22.90;99.90
38118;DHT22;23928;47.562;7.508;2023-08-21T00:51:05;22.90;99.90
38118;DHT22;23928;47.562;7.508;2023-08-21T00:53:32;23.10;99.90
38118;DHT22;23928;47.562;7.508;2023-08-21T00:55:58;22.80;99.90
38118;DHT22;23928;47.562;7.508;2023-08-21T00:58:24;22.80;99.90
38118;DHT22;23928;47.562;7.508;2023-08-21T01:00:49;23.10;99.90
38118;DHT22;23928;47.562;7.508;2023-08-21T01:03:17;23.30;99.90
38118;DHT22;23928;47.562;7.508;2023-08-21T01:05:43;23.10;99.90
38118;DHT22;23928;47.562;7.508;2023-08-21T01:08:21;23.00;99.90
38118;DHT22;23928;47.562;7.508;2023-08-21T01:11:02;22.80;99.90
38118;DHT22;23928;47.562;7.508;2023-08-21T01:16:00;22.90;99.90
38118;DHT22;23928;47.562;7.508;2023-08-21T01:18:26;23.00;99.90
38118;DHT22;23928;47.562;7.508;2023-08-21T01:20:54;22.60;99.90
38118;DHT22;23928;47.562;7.508;2023-08-21T01:23:36;22.70;99.90
38118;DHT22;23928;47.562;7.508;2023-08-21T01:26:02;22.90;99.90
38118;DHT22;23928;47.562;7.508;2023-08-21T01:28:30;22.70;99.90
38118;DHT22;23928;47.562;7.508;2023-08-21T01:33:47;22.30;99.90
38118;DHT22;23928;47.562;7.508;2023-08-21T01:36:14;22.40;99.90
38118;DHT22;23928;47.562;7.508;2023-08-21T01:38:40;22.50;99.90
38118;DHT22;23928;47.562;7.508;2023-08-21T01:41:06;22.60;99.90
38118;DHT22;23928;47.562;7.508;2023-08-21T01:43:32;22.50;99.90
38118;DHT22;23928;47.562;7.508;2023-08-21T01:45:57;22.40;99.90
38118;DHT22;23928;47.562;7.508;2023-08-21T01:48:23;22.20;99.90
38118;DHT22;23928;47.562;7.508;2023-08-21T01:50:49;22.20;99.90
38118;DHT22;23928;47.562;7.508;2023-08-21T01:53:15;22.40;99.90
38118;DHT22;23928;47.562;7.508;2023-08-21T01:55:40;22.30;99.90
38118;DHT22;23928;47.562;7.508;2023-08-21T01:58:06;22.30;99.90
38118;DHT22;23928;47.562;7.508;2023-08-21T02:00:31;22.40;99.90
38118;DHT22;23928;47.562;7.508;2023-08-21T02:02:57;22.20;99.90
38118;DHT22;23928;47.562;7.508;2023-08-21T02:05:22;22.00;99.90
38118;DHT22;23928;47.562;7.508;2023-08-21T02:07:48;22.10;99.90
38118;DHT22;23928;47.562;7.508;2023-08-21T02:10:14;22.00;99.90
38118;DHT22;23928;47.562;7.508;2023-08-21T02:12:39;21.90;99.90
38118;DHT22;23928;47.562;7.508;2023-08-21T02:15:05;22.10;99.90
38118;DHT22;23928;47.562;7.508;2023-08-21T02:17:31;22.10;99.90
38118;DHT22;23928;47.562;7.508;2023-08-21T02:19:57;21.80;99.90
38118;DHT22;23928;47.562;7.508;2023-08-21T02:22:23;21.90;99.90
38118;DHT22;23928;47.562;7.508;2023-08-21T02:24:48;21.90;99.90
38118;DHT22;23928;47.562;7.508;2023-08-21T02:27:14;22.00;99.90
38118;DHT22;23928;47.562;7.508;2023-08-21T02:29:40;21.90;99.90
38118;DHT22;23928;47.562;7.508;2023-08-21T02:32:05;22.00;99.90
38118;DHT22;23928;47.562;7.508;2023-08-21T02:34:31;21.90;99.90
38118;DHT22;23928;47.562;7.508;2023-08-21T02:36:56;21.70;99.90
38118;DHT22;23928;47.562;7.508;2023-08-21T02:39:23;21.60;99.90
38118;DHT22;23928;47.562;7.508;2023-08-21T02:41:49;21.50;99.90
38118;DHT22;23928;47.562;7.508;2023-08-21T02:44:14;21.40;99.90
38118;DHT22;23928;47.562;7.508;2023-08-21T02:46:40;21.40;99.90
38118;DHT22;23928;47.562;7.508;2023-08-21T02:49:06;21.40;99.90
38118;DHT22;23928;47.562;7.508;2023-08-21T02:51:31;21.40;99.90
38118;DHT22;23928;47.562;7.508;2023-08-21T02:53:57;21.50;99.90
38118;DHT22;23928;47.562;7.508;2023-08-21T02:56:23;21.40;99.90
38118;DHT22;23928;47.562;7.508;2023-08-21T02:58:48;21.40;99.90
38118;DHT22;23928;47.562;7.508;2023-08-21T03:01:14;21.20;99.90
38118;DHT22;23928;47.562;7.508;2023-08-21T03:03:39;21.20;99.90
38118;DHT22;23928;47.562;7.508;2023-08-21T03:06:05;21.20;99.90
38118;DHT22;23928;47.562;7.508;2023-08-21T03:08:31;21.50;99.90
38118;DHT22;23928;47.562;7.508;2023-08-21T03:10:56;21.70;99.90
38118;DHT22;23928;47.562;7.508;2023-08-21T03:13:22;21.60;99.90
38118;DHT22;23928;47.562;7.508;2023-08-21T03:15:48;21.40;99.90
38118;DHT22;23928;47.562;7.508;2023-08-21T03:18:13;21.50;99.90
38118;DHT22;23928;47.562;7.508;2023-08-21T03:20:44;21.70;99.90
38118;DHT22;23928;47.562;7.508;2023-08-21T03:23:10;21.70;99.90
38118;DHT22;23928;47.562;7.508;2023-08-21T03:25:35;21.60;99.90
38118;DHT22;23928;47.562;7.508;2023-08-21T03:28:01;21.40;99.90
38118;DHT22;23928;47.562;7.508;2023-08-21T03:30:27;21.40;99.90
38118;DHT22;23928;47.562;7.508;2023-08-21T03:32:52;21.20;99.90
38118;DHT22;23928;47.562;7.508;2023-08-21T03:35:18;21.30;99.90
38118;DHT22;23928;47.562;7.508;2023-08-21T03:37:43;21.20;99.90
38118;DHT22;23928;47.562;7.508;2023-08-21T03:40:09;21.10;99.90
38118;DHT22;23928;47.562;7.508;2023-08-21T03:42:35;21.00;99.90
38118;DHT22;23928;47.562;7.508;2023-08-21T03:45:01;20.90;99.90
38118;DHT22;23928;47.562;7.508;2023-08-21T03:47:29;20.90;99.90
38118;DHT22;23928;47.562;7.508;2023-08-21T03:49:54;21.00;99.90
38118;DHT22;23928;47.562;7.508;2023-08-21T03:52:20;21.00;99.90
38118;DHT22;23928;47.562;7.508;2023-08-21T03:54:45;21.00;99.90
38118;DHT22;23928;47.562;7.508;2023-08-21T03:57:11;21.00;99.90
38118;DHT22;23928;47.562;7.508;2023-08-21T03:59:36;20.90;99.90
38118;DHT22;23928;47.562;7.508;2023-08-21T04:02:02;20.90;99.90
38118;DHT22;23928;47.562;7.508;2023-08-21T04:04:28;20.70;99.90
38118;DHT22;23928;47.562;7.508;2023-08-21T04:06:53;20.70;99.90
38118;DHT22;23928;47.562;7.508;2023-08-21T04:09:19;20.70;99.90
38118;DHT22;23928;47.562;7.508;2023-08-21T04:11:44;20.70;99.90
38118;DHT22;23928;47.562;7.508;2023-08-21T04:14:10;20.60;99.90
38118;DHT22;23928;47.562;7.508;2023-08-21T04:16:36;20.80;99.90
38118;DHT22;23928;47.562;7.508;2023-08-21T04:19:01;20.70;99.90
38118;DHT22;23928;47.562;7.508;2023-08-21T04:21:27;20.70;99.90
38118;DHT22;23928;47.562;7.508;2023-08-21T04:23:52;20.70;99.90
38118;DHT22;23928;47.562;7.508;2023-08-21T04:26:18;20.70;99.90
38118;DHT22;23928;47.562;7.508;2023-08-21T04:28:45;20.60;99.90
38118;DHT22;23928;47.562;7.508;2023-08-21T04:31:11;20.70;99.90
38118;DHT22;23928;47.562;7.508;2023-08-21T04:33:36;20.70;99.90
38118;DHT22;23928;47.562;7.508;2023-08-21T04:36:02;20.60;99.90
38118;DHT22;23928;47.562;7.508;2023-08-21T04:38:28;20.60;99.90
38118;DHT22;23928;47.562;7.508;2023-08-21T04:40:53;20.60;99.90
38118;DHT22;23928;47.562;7.508;2023-08-21T04:43:19;20.60;99.90
38118;DHT22;23928;47.562;7.508;2023-08-21T04:45:51;20.50;99.90
38118;DHT22;23928;47.562;7.508;2023-08-21T04:48:19;20.50;99.90
38118;DHT22;23928;47.562;7.508;2023-08-21T04:50:45;20.60;99.90
38118;DHT22;23928;47.562;7.508;2023-08-21T04:53:11;20.60;99.90
38118;DHT22;23928;47.562;7.508;2023-08-21T04:55:37;20.50;99.90
38118;DHT22;23928;47.562;7.508;2023-08-21T04:58:06;20.50;99.90
38118;DHT22;23928;47.562;7.508;2023-08-21T05:00:31;20.60;99.90
38118;DHT22;23928;47.562;7.508;2023-08-21T05:02:57;20.60;99.90
38118;DHT22;23928;47.562;7.508;2023-08-21T05:05:23;20.60;99.90
38118;DHT22;23928;47.562;7.508;2023-08-21T05:07:48;20.60;99.90
38118;DHT22;23928;47.562;7.508;2023-08-21T05:10:14;20.60;99.90
38118;DHT22;23928;47.562;7.508;2023-08-21T05:12:39;20.70;99.90
38118;DHT22;23928;47.562;7.508;2023-08-21T05:15:05;20.70;99.90
38118;DHT22;23928;47.562;7.508;2023-08-21T05:17:31;20.80;99.90
38118;DHT22;23928;47.562;7.508;2023-08-21T05:19:56;20.90;99.90
38118;DHT22;23928;47.562;7.508;2023-08-21T05:22:22;20.90;99.90
38118;DHT22;23928;47.562;7.508;2023-08-21T05:24:48;21.00;99.90
38118;DHT22;23928;47.562;7.508;2023-08-21T05:27:13;21.10;99.90
38118;DHT22;23928;47.562;7.508;2023-08-21T05:29:39;21.00;99.90
38118;DHT22;23928;47.562;7.508;2023-08-21T05:32:05;21.10;99.90
38118;DHT22;23928;47.562;7.508;2023-08-21T05:34:31;21.20;99.90
38118;DHT22;23928;47.562;7.508;2023-08-21T05:36:56;21.30;99.90
38118;DHT22;23928;47.562;7.508;2023-08-21T05:39:22;21.40;99.90
38118;DHT22;23928;47.562;7.508;2023-08-21T05:41:48;21.40;99.90
38118;DHT22;23928;47.562;7.508;2023-08-21T05:44:13;21.50;99.90
38118;DHT22;23928;47.562;7.508;2023-08-21T05:46:39;21.60;99.90
38118;DHT22;23928;47.562;7.508;2023-08-21T05:49:04;21.70;99.90
38118;DHT22;23928;47.562;7.508;2023-08-21T05:51:30;21.80;99.90
38118;DHT22;23928;47.562;7.508;2023-08-21T05:53:56;21.90;99.90
38118;DHT22;23928;47.562;7.508;2023-08-21T05:56:22;21.90;99.90
38118;DHT22;23928;47.562;7.508;2023-08-21T05:58:48;22.00;99.90
38118;DHT22;23928;47.562;7.508;2023-08-21T06:01:13;22.20;99.90
38118;DHT22;23928;47.562;7.508;2023-08-21T06:03:39;22.30;99.90
38118;DHT22;23928;47.562;7.508;2023-08-21T06:06:05;22.60;99.90
38118;DHT22;23928;47.562;7.508;2023-08-21T06:08:31;22.80;99.90
38118;DHT22;23928;47.562;7.508;2023-08-21T06:10:57;23.00;99.90
38118;DHT22;23928;47.562;7.508;2023-08-21T06:13:23;23.00;99.90
38118;DHT22;23928;47.562;7.508;2023-08-21T06:15:48;23.20;99.90
38118;DHT22;23928;47.562;7.508;2023-08-21T06:18:14;23.30;99.90
38118;DHT22;23928;47.562;7.508;2023-08-21T06:20:43;23.40;99.90
38118;DHT22;23928;47.562;7.508;2023-08-21T06:23:10;23.30;99.90
38118;DHT22;23928;47.562;7.508;2023-08-21T06:25:36;23.20;99.90
38118;DHT22;23928;47.562;7.508;2023-08-21T06:28:01;23.10;99.90
38118;DHT22;23928;47.562;7.508;2023-08-21T06:30:27;23.20;99.90
38118;DHT22;23928;47.562;7.508;2023-08-21T06:32:53;23.20;99.90
38118;DHT22;23928;47.562;7.508;2023-08-21T06:35:19;23.20;99.90
38118;DHT22;23928;47.562;7.508;2023-08-21T06:37:44;23.30;99.90
38118;DHT22;23928;47.562;7.508;2023-08-21T06:40:10;23.30;99.90
38118;DHT22;23928;47.562;7.508;2023-08-21T06:42:36;23.30;99.90
38118;DHT22;23928;47.562;7.508;2023-08-21T06:45:04;23.40;99.90
38118;DHT22;23928;47.562;7.508;2023-08-21T06:47:29;23.50;99.90
38118;DHT22;23928;47.562;7.508;2023-08-21T06:49:55;23.60;99.90
38118;DHT22;23928;47.562;7.508;2023-08-21T06:52:21;23.70;99.90
38118;DHT22;23928;47.562;7.508;2023-08-21T06:54:46;23.70;99.90
38118;DHT22;23928;47.562;7.508;2023-08-21T06:57:12;23.70;99.90
38118;DHT22;23928;47.562;7.508;2023-08-21T06:59:37;23.90;99.90
38118;DHT22;23928;47.562;7.508;2023-08-21T07:02:03;24.00;99.90
38118;DHT22;23928;47.562;7.508;2023-08-21T07:04:29;24.10;99.90
38118;DHT22;23928;47.562;7.508;2023-08-21T07:06:55;24.20;99.90
38118;DHT22;23928;47.562;7.508;2023-08-21T07:09:20;24.30;99.90
38118;DHT22;23928;47.562;7.508;2023-08-21T07:11:46;24.30;99.90
38118;DHT22;23928;47.562;7.508;2023-08-21T07:14:11;24.50;99.90
38118;DHT22;23928;47.562;7.508;2023-08-21T07:16:39;24.30;99.90
38118;DHT22;23928;47.562;7.508;2023-08-21T07:19:05;24.30;99.90
38118;DHT22;23928;47.562;7.508;2023-08-21T07:21:30;24.30;99.90
38118;DHT22;23928;47.562;7.508;2023-08-21T07:23:56;24.50;99.90
38118;DHT22;23928;47.562;7.508;2023-08-21T07:26:22;24.60;99.90
38118;DHT22;23928;47.562;7.508;2023-08-21T07:28:47;24.80;99.90
38118;DHT22;23928;47.562;7.508;2023-08-21T07:31:13;24.90;99.90
38118;DHT22;23928;47.562;7.508;2023-08-21T07:33:39;24.80;99.90
38118;DHT22;23928;47.562;7.508;2023-08-21T07:36:05;24.90;99.90
38118;DHT22;23928;47.562;7.508;2023-08-21T07:38:32;24.90;99.90
38118;DHT22;23928;47.562;7.508;2023-08-21T07:41:10;25.10;99.90
38118;DHT22;23928;47.562;7.508;2023-08-21T07:43:38;25.20;99.90
38118;DHT22;23928;47.562;7.508;2023-08-21T07:46:04;25.30;99.90
38118;DHT22;23928;47.562;7.508;2023-08-21T07:48:30;25.40;99.90
38118;DHT22;23928;47.562;7.508;2023-08-21T07:50:56;25.50;99.90
38118;DHT22;23928;47.562;7.508;2023-08-21T07:53:23;25.60;99.90
38118;DHT22;23928;47.562;7.508;2023-08-21T07:55:49;25.60;99.90
38118;DHT22;23928;47.562;7.508;2023-08-21T07:58:14;25.70;99.90
38118;DHT22;23928;47.562;7.508;2023-08-21T08:00:40;25.70;99.90
38118;DHT22;23928;47.562;7.508;2023-08-21T08:03:08;25.90;99.90
38118;DHT22;23928;47.562;7.508;2023-08-21T08:05:33;26.10;99.90
38118;DHT22;23928;47.562;7.508;2023-08-21T08:07:59;26.10;99.90
38118;DHT22;23928;47.562;7.508;2023-08-21T08:10:25;26.20;99.90
38118;DHT22;23928;47.562;7.508;2023-08-21T08:12:51;26.40;99.90
38118;DHT22;23928;47.562;7.508;2023-08-21T08:15:17;26.40;99.90
38118;DHT22;23928;47.562;7.508;2023-08-21T08:17:43;26.30;99.90
38118;DHT22;23928;47.562;7.508;2023-08-21T08:20:11;26.40;99.90
38118;DHT22;23928;47.562;7.508;2023-08-21T08:22:37;26.40;99.90
38118;DHT22;23928;47.562;7.508;2023-08-21T08:25:03;26.60;99.90
38118;DHT22;23928;47.562;7.508;2023-08-21T08:27:29;26.80;99.90
38118;DHT22;23928;47.562;7.508;2023-08-21T08:29:54;26.60;99.90
38118;DHT22;23928;47.562;7.508;2023-08-21T08:32:20;26.50;99.90
38118;DHT22;23928;47.562;7.508;2023-08-21T08:34:46;26.50;99.90
38118;DHT22;23928;47.562;7.508;2023-08-21T08:37:12;26.70;99.90
38118;DHT22;23928;47.562;7.508;2023-08-21T08:39:37;26.80;99.90
38118;DHT22;23928;47.562;7.508;2023-08-21T08:42:05;26.90;99.90
38118;DHT22;23928;47.562;7.508;2023-08-21T08:44:34;27.00;99.90
38118;DHT22;23928;47.562;7.508;2023-08-21T08:47:01;27.20;99.90
38118;DHT22;23928;47.562;7.508;2023-08-21T08:49:27;27.40;99.90
38118;DHT22;23928;47.562;7.508;2023-08-21T08:51:54;27.60;99.90
38118;DHT22;23928;47.562;7.508;2023-08-21T08:54:21;27.70;99.90
38118;DHT22;23928;47.562;7.508;2023-08-21T08:56:47;27.70;99.90
38118;DHT22;23928;47.562;7.508;2023-08-21T08:59:13;27.70;99.90
38118;DHT22;23928;47.562;7.508;2023-08-21T09:01:40;27.50;99.90
38118;DHT22;23928;47.562;7.508;2023-08-21T09:04:06;27.70;99.90
38118;DHT22;23928;47.562;7.508;2023-08-21T09:06:33;27.70;99.90
38118;DHT22;23928;47.562;7.508;2023-08-21T09:08:59;27.80;99.90
38118;DHT22;23928;47.562;7.508;2023-08-21T09:11:25;28.00;99.90
38118;DHT22;23928;47.562;7.508;2023-08-21T09:13:52;27.80;99.90
38118;DHT22;23928;47.562;7.508;2023-08-21T09:16:18;27.70;99.90
38118;DHT22;23928;47.562;7.508;2023-08-21T09:18:48;27.70;99.90
38118;DHT22;23928;47.562;7.508;2023-08-21T09:21:18;28.00;99.90
38118;DHT22;23928;47.562;7.508;2023-08-21T09:23:45;28.00;99.90
38118;DHT22;23928;47.562;7.508;2023-08-21T09:26:18;28.10;99.90
38118;DHT22;23928;47.562;7.508;2023-08-21T09:28:44;28.20;99.90
38118;DHT22;23928;47.562;7.508;2023-08-21T09:31:10;28.20;99.90
38118;DHT22;23928;47.562;7.508;2023-08-21T09:33:36;28.40;99.90
38118;DHT22;23928;47.562;7.508;2023-08-21T09:36:03;28.50;99.90
38118;DHT22;23928;47.562;7.508;2023-08-21T09:38:30;28.70;99.90
38118;DHT22;23928;47.562;7.508;2023-08-21T09:40:56;28.70;99.90
38118;DHT22;23928;47.562;7.508;2023-08-21T09:43:23;28.70;99.90
38118;DHT22;23928;47.562;7.508;2023-08-21T09:45:50;28.80;99.90
38118;DHT22;23928;47.562;7.508;2023-08-21T09:48:18;28.80;99.90
38118;DHT22;23928;47.562;7.508;2023-08-21T09:50:46;29.00;99.90
38118;DHT22;23928;47.562;7.508;2023-08-21T09:53:12;29.20;99.90
38118;DHT22;23928;47.562;7.508;2023-08-21T09:55:38;28.90;99.90
38118;DHT22;23928;47.562;7.508;2023-08-21T09:58:04;28.80;99.90
38118;DHT22;23928;47.562;7.508;2023-08-21T10:00:32;28.80;99.90
38118;DHT22;23928;47.562;7.508;2023-08-21T10:03:03;28.90;99.90
38118;DHT22;23928;47.562;7.508;2023-08-21T10:05:31;28.90;99.90
38118;DHT22;23928;47.562;7.508;2023-08-21T10:08:03;29.00;99.90
38118;DHT22;23928;47.562;7.508;2023-08-21T10:10:35;29.10;99.90
38118;DHT22;23928;47.562;7.508;2023-08-21T10:13:02;29.20;99.90
38118;DHT22;23928;47.562;7.508;2023-08-21T10:15:28;29.30;99.90
38118;DHT22;23928;47.562;7.508;2023-08-21T10:17:55;29.30;99.90
38118;DHT22;23928;47.562;7.508;2023-08-21T10:20:22;29.60;99.90
38118;DHT22;23928;47.562;7.508;2023-08-21T10:22:54;29.70;99.90
38118;DHT22;23928;47.562;7.508;2023-08-21T10:25:23;29.90;99.90
38118;DHT22;23928;47.562;7.508;2023-08-21T10:27:50;29.90;99.90
38118;DHT22;23928;47.562;7.508;2023-08-21T10:30:26;30.10;99.90
38118;DHT22;23928;47.562;7.508;2023-08-21T10:32:54;30.30;99.90
38118;DHT22;23928;47.562;7.508;2023-08-21T10:35:28;30.00;99.90
38118;DHT22;23928;47.562;7.508;2023-08-21T10:38:15;30.00;99.90
38118;DHT22;23928;47.562;7.508;2023-08-21T10:41:05;30.30;99.90
38118;DHT22;23928;47.562;7.508;2023-08-21T10:43:43;30.40;99.90
38118;DHT22;23928;47.562;7.508;2023-08-21T10:46:09;30.70;99.90
38118;DHT22;23928;47.562;7.508;2023-08-21T10:48:36;30.60;99.90
38118;DHT22;23928;47.562;7.508;2023-08-21T10:51:04;30.30;99.90
38118;DHT22;23928;47.562;7.508;2023-08-21T10:53:31;30.30;99.90
38118;DHT22;23928;47.562;7.508;2023-08-21T10:55:59;30.50;99.90
38118;DHT22;23928;47.562;7.508;2023-08-21T10:58:26;30.70;99.90
38118;DHT22;23928;47.562;7.508;2023-08-21T11:01:00;31.00;99.90
38118;DHT22;23928;47.562;7.508;2023-08-21T11:03:26;30.80;99.90
38118;DHT22;23928;47.562;7.508;2023-08-21T11:06:02;31.00;99.90
38118;DHT22;23928;47.562;7.508;2023-08-21T11:08:28;31.10;99.90
38118;DHT22;23928;47.562;7.508;2023-08-21T11:10:54;31.00;99.90
38118;DHT22;23928;47.562;7.508;2023-08-21T11:13:23;30.90;99.90
38118;DHT22;23928;47.562;7.508;2023-08-21T11:15:49;31.00;99.90
38118;DHT22;23928;47.562;7.508;2023-08-21T11:18:14;31.00;99.90
38118;DHT22;23928;47.562;7.508;2023-08-21T11:20:40;31.10;99.90
38118;DHT22;23928;47.562;7.508;2023-08-21T11:23:07;30.90;99.90
38118;DHT22;23928;47.562;7.508;2023-08-21T11:25:38;31.30;99.90
38118;DHT22;23928;47.562;7.508;2023-08-21T11:28:05;31.70;99.90
38118;DHT22;23928;47.562;7.508;2023-08-21T11:30:31;31.60;99.90
38118;DHT22;23928;47.562;7.508;2023-08-21T11:33:10;31.80;99.90
38118;DHT22;23928;47.562;7.508;2023-08-21T11:35:37;31.60;99.90
38118;DHT22;23928;47.562;7.508;2023-08-21T11:38:03;31.60;99.90
38118;DHT22;23928;47.562;7.508;2023-08-21T11:40:29;31.60;99.90
38118;DHT22;23928;47.562;7.508;2023-08-21T11:43:00;31.80;99.90
38118;DHT22;23928;47.562;7.508;2023-08-21T11:45:26;32.30;99.90
38118;DHT22;23928;47.562;7.508;2023-08-21T11:47:55;32.50;99.90
38118;DHT22;23928;47.562;7.508;2023-08-21T11:50:21;31.90;99.90
38118;DHT22;23928;47.562;7.508;2023-08-21T11:52:47;31.60;99.90
38118;DHT22;23928;47.562;7.508;2023-08-21T11:55:17;31.80;99.90
38118;DHT22;23928;47.562;7.508;2023-08-21T11:57:49;32.00;99.90
38118;DHT22;23928;47.562;7.508;2023-08-21T12:00:16;32.40;99.90
38118;DHT22;23928;47.562;7.508;2023-08-21T12:02:56;32.70;99.90
38118;DHT22;23928;47.562;7.508;2023-08-21T12:05:22;32.50;99.90
38118;DHT22;23928;47.562;7.508;2023-08-21T12:07:48;32.20;99.90
38118;DHT22;23928;47.562;7.508;2023-08-21T12:10:14;31.80;99.90
38118;DHT22;23928;47.562;7.508;2023-08-21T12:12:40;32.10;99.90
38118;DHT22;23928;47.562;7.508;2023-08-21T12:15:06;32.10;99.90
38118;DHT22;23928;47.562;7.508;2023-08-21T12:17:31;32.10;99.90
38118;DHT22;23928;47.562;7.508;2023-08-21T12:19:57;32.40;99.90
38118;DHT22;23928;47.562;7.508;2023-08-21T12:22:22;32.80;99.90
38118;DHT22;23928;47.562;7.508;2023-08-21T12:24:48;32.70;99.90
38118;DHT22;23928;47.562;7.508;2023-08-21T12:27:14;33.10;99.90
38118;DHT22;23928;47.562;7.508;2023-08-21T12:29:39;33.40;99.90
38118;DHT22;23928;47.562;7.508;2023-08-21T12:32:05;33.40;99.90
38118;DHT22;23928;47.562;7.508;2023-08-21T12:34:31;33.20;99.90
38118;DHT22;23928;47.562;7.508;2023-08-21T12:36:56;33.20;99.90
38118;DHT22;23928;47.562;7.508;2023-08-21T12:39:22;33.00;99.90
38118;DHT22;23928;47.562;7.508;2023-08-21T12:41:47;33.20;99.90
38118;DHT22;23928;47.562;7.508;2023-08-21T12:44:14;33.60;99.90
38118;DHT22;23928;47.562;7.508;2023-08-21T12:46:40;33.90;99.90
38118;DHT22;23928;47.562;7.508;2023-08-21T12:49:06;33.50;99.90
38118;DHT22;23928;47.562;7.508;2023-08-21T12:51:32;33.60;99.90
38118;DHT22;23928;47.562;7.508;2023-08-21T12:53:57;33.50;99.90
38118;DHT22;23928;47.562;7.508;2023-08-21T12:56:23;33.00;99.90
38118;DHT22;23928;47.562;7.508;2023-08-21T12:58:49;33.60;99.90
38118;DHT22;23928;47.562;7.508;2023-08-21T13:01:14;34.40;99.90
38118;DHT22;23928;47.562;7.508;2023-08-21T13:03:46;35.10;99.90
38118;DHT22;23928;47.562;7.508;2023-08-21T13:06:15;35.20;99.90
38118;DHT22;23928;47.562;7.508;2023-08-21T13:08:41;34.50;99.90
38118;DHT22;23928;47.562;7.508;2023-08-21T13:11:06;34.00;99.90
38118;DHT22;23928;47.562;7.508;2023-08-21T13:13:33;34.10;99.90
38118;DHT22;23928;47.562;7.508;2023-08-21T13:15:59;34.10;99.90
38118;DHT22;23928;47.562;7.508;2023-08-21T13:18:26;33.40;99.90
38118;DHT22;23928;47.562;7.508;2023-08-21T13:20:51;33.10;99.90
38118;DHT22;23928;47.562;7.508;2023-08-21T13:23:17;33.30;99.90
38118;DHT22;23928;47.562;7.508;2023-08-21T13:25:42;33.60;99.90
38118;DHT22;23928;47.562;7.508;2023-08-21T13:28:08;33.90;99.90
38118;DHT22;23928;47.562;7.508;2023-08-21T13:30:34;33.60;99.90
38118;DHT22;23928;47.562;7.508;2023-08-21T13:32:59;33.70;99.90
38118;DHT22;23928;47.562;7.508;2023-08-21T13:35:25;33.80;99.90
38118;DHT22;23928;47.562;7.508;2023-08-21T13:37:51;33.80;99.90
38118;DHT22;23928;47.562;7.508;2023-08-21T13:40:17;34.20;99.90
38118;DHT22;23928;47.562;7.508;2023-08-21T13:42:44;34.20;99.90
38118;DHT22;23928;47.562;7.508;2023-08-21T13:45:17;33.90;99.90
38118;DHT22;23928;47.562;7.508;2023-08-21T13:47:45;34.20;99.90
38118;DHT22;23928;47.562;7.508;2023-08-21T13:50:14;33.70;99.90
38118;DHT22;23928;47.562;7.508;2023-08-21T13:52:40;33.90;99.90
38118;DHT22;23928;47.562;7.508;2023-08-21T13:55:07;33.60;99.90
38118;DHT22;23928;47.562;7.508;2023-08-21T13:57:33;33.80;99.90
38118;DHT22;23928;47.562;7.508;2023-08-21T14:00:03;33.30;99.90
38118;DHT22;23928;47.562;7.508;2023-08-21T14:02:37;33.50;99.90
38118;DHT22;23928;47.562;7.508;2023-08-21T14:05:04;33.80;99.90
38118;DHT22;23928;47.562;7.508;2023-08-21T14:07:31;34.40;99.90
38118;DHT22;23928;47.562;7.508;2023-08-21T14:09:56;35.10;99.90
38118;DHT22;23928;47.562;7.508;2023-08-21T14:12:22;34.60;99.90
38118;DHT22;23928;47.562;7.508;2023-08-21T14:14:48;34.20;99.90
38118;DHT22;23928;47.562;7.508;2023-08-21T14:17:13;34.50;99.90
38118;DHT22;23928;47.562;7.508;2023-08-21T14:19:40;34.30;99.90
38118;DHT22;23928;47.562;7.508;2023-08-21T14:22:05;34.20;99.90
38118;DHT22;23928;47.562;7.508;2023-08-21T14:24:31;34.10;99.90
38118;DHT22;23928;47.562;7.508;2023-08-21T14:26:56;34.70;99.90
38118;DHT22;23928;47.562;7.508;2023-08-21T14:29:22;35.00;99.90
38118;DHT22;23928;47.562;7.508;2023-08-21T14:31:48;35.30;99.90
38118;DHT22;23928;47.562;7.508;2023-08-21T14:34:14;34.90;99.90
38118;DHT22;23928;47.562;7.508;2023-08-21T14:36:41;33.80;99.90
38118;DHT22;23928;47.562;7.508;2023-08-21T14:39:08;33.90;99.90
38118;DHT22;23928;47.562;7.508;2023-08-21T14:41:37;34.40;99.90
38118;DHT22;23928;47.562;7.508;2023-08-21T14:44:02;35.30;99.90
38118;DHT22;23928;47.562;7.508;2023-08-21T14:46:28;35.40;99.90
38118;DHT22;23928;47.562;7.508;2023-08-21T14:48:54;35.20;99.90
38118;DHT22;23928;47.562;7.508;2023-08-21T14:51:19;35.30;99.90
38118;DHT22;23928;47.562;7.508;2023-08-21T14:53:45;36.00;99.90
38118;DHT22;23928;47.562;7.508;2023-08-21T14:56:10;36.60;99.90
38118;DHT22;23928;47.562;7.508;2023-08-21T14:58:36;35.60;99.90
38118;DHT22;23928;47.562;7.508;2023-08-21T15:01:01;35.50;99.90
38118;DHT22;23928;47.562;7.508;2023-08-21T15:03:28;34.90;99.90
38118;DHT22;23928;47.562;7.508;2023-08-21T15:05:53;34.70;99.90
38118;DHT22;23928;47.562;7.508;2023-08-21T15:08:19;35.00;99.90
38118;DHT22;23928;47.562;7.508;2023-08-21T15:10:45;34.40;99.90
38118;DHT22;23928;47.562;7.508;2023-08-21T15:13:10;34.70;99.90
38118;DHT22;23928;47.562;7.508;2023-08-21T15:15:36;34.50;99.90
38118;DHT22;23928;47.562;7.508;2023-08-21T15:18:01;34.60;99.90
38118;DHT22;23928;47.562;7.508;2023-08-21T15:20:27;35.20;99.90
38118;DHT22;23928;47.562;7.508;2023-08-21T15:22:52;35.40;99.90
38118;DHT22;23928;47.562;7.508;2023-08-21T15:25:18;36.10;99.90
38118;DHT22;23928;47.562;7.508;2023-08-21T15:27:45;36.10;99.90
38118;DHT22;23928;47.562;7.508;2023-08-21T15:30:11;35.80;99.90